sensor_id;sensor_type;location;lat;lon;timestamp;P1;durP1;ratioP1;P2;durP2;ratioP2
31974;SDS011;18500;43.618;1.474;2022-12-29T00:02:11;704.40;;;654.78;;
31974;SDS011;18500;43.618;1.474;2022-12-29T00:04:38;640.15;;;594.20;;
31974;SDS011;18500;43.618;1.474;2022-12-29T00:07:04;627.65;;;582.80;;
31974;SDS011;18500;43.618;1.474;2022-12-29T00:09:30;675.53;;;626.97;;
31974;SDS011;18500;43.618;1.474;2022-12-29T00:11:57;545.83;;;506.73;;
31974;SDS011;18500;43.618;1.474;2022-12-29T00:14:23;652.00;;;606.20;;
31974;SDS011;18500;43.618;1.474;2022-12-29T00:17:07;761.15;;;705.53;;
31974;SDS011;18500;43.618;1.474;2022-12-29T00:19:33;676.88;;;628.65;;
31974;SDS011;18500;43.618;1.474;2022-12-29T00:22:18;685.38;;;637.40;;
31974;SDS011;18500;43.618;1.474;2022-12-29T00:25:03;483.80;;;450.25;;
31974;SDS011;18500;43.618;1.474;2022-12-29T00:27:48;573.03;;;533.28;;
31974;SDS011;18500;43.618;1.474;2022-12-29T00:30:32;608.10;;;564.63;;
31974;SDS011;18500;43.618;1.474;2022-12-29T00:33:17;583.45;;;541.88;;
31974;SDS011;18500;43.618;1.474;2022-12-29T00:38:28;521.45;;;484.48;;
31974;SDS011;18500;43.618;1.474;2022-12-29T00:41:15;659.30;;;611.85;;
31974;SDS011;18500;43.618;1.474;2022-12-29T00:43:59;507.55;;;471.17;;
31974;SDS011;18500;43.618;1.474;2022-12-29T00:46:30;496.98;;;462.83;;
31974;SDS011;18500;43.618;1.474;2022-12-29T00:48:57;517.38;;;482.70;;
31974;SDS011;18500;43.618;1.474;2022-12-29T00:51:41;490.83;;;457.38;;
31974;SDS011;18500;43.618;1.474;2022-12-29T00:54:07;649.10;;;603.40;;
31974;SDS011;18500;43.618;1.474;2022-12-29T00:56:33;657.30;;;611.13;;
31974;SDS011;18500;43.618;1.474;2022-12-29T00:59:02;573.65;;;534.75;;
31974;SDS011;18500;43.618;1.474;2022-12-29T01:01:30;594.55;;;553.70;;
31974;SDS011;18500;43.618;1.474;2022-12-29T01:03:56;541.10;;;504.05;;
31974;SDS011;18500;43.618;1.474;2022-12-29T01:06:21;550.75;;;512.67;;
31974;SDS011;18500;43.618;1.474;2022-12-29T01:08:48;590.08;;;549.10;;
31974;SDS011;18500;43.618;1.474;2022-12-29T01:11:39;465.25;;;433.00;;
31974;SDS011;18500;43.618;1.474;2022-12-29T01:14:05;485.90;;;451.65;;
31974;SDS011;18500;43.618;1.474;2022-12-29T01:16:32;494.85;;;460.55;;
31974;SDS011;18500;43.618;1.474;2022-12-29T01:18:58;590.90;;;549.80;;
31974;SDS011;18500;43.618;1.474;2022-12-29T01:21:24;580.35;;;540.83;;
31974;SDS011;18500;43.618;1.474;2022-12-29T01:23:50;603.78;;;562.00;;
31974;SDS011;18500;43.618;1.474;2022-12-29T01:26:16;525.17;;;489.95;;
31974;SDS011;18500;43.618;1.474;2022-12-29T01:28:43;610.65;;;569.22;;
31974;SDS011;18500;43.618;1.474;2022-12-29T01:31:09;404.33;;;376.05;;
31974;SDS011;18500;43.618;1.474;2022-12-29T01:33:37;345.77;;;322.65;;
31974;SDS011;18500;43.618;1.474;2022-12-29T01:36:04;558.05;;;519.75;;
31974;SDS011;18500;43.618;1.474;2022-12-29T01:38:32;586.58;;;546.58;;
31974;SDS011;18500;43.618;1.474;2022-12-29T01:40:58;613.88;;;570.88;;
31974;SDS011;18500;43.618;1.474;2022-12-29T01:46:26;732.00;;;680.42;;
31974;SDS011;18500;43.618;1.474;2022-12-29T01:49:19;679.80;;;633.28;;
31974;SDS011;18500;43.618;1.474;2022-12-29T01:52:00;703.20;;;651.28;;
31974;SDS011;18500;43.618;1.474;2022-12-29T01:56:58;645.33;;;601.15;;
31974;SDS011;18500;43.618;1.474;2022-12-29T01:59:28;612.55;;;570.75;;
31974;SDS011;18500;43.618;1.474;2022-12-29T02:01:57;486.17;;;453.77;;
31974;SDS011;18500;43.618;1.474;2022-12-29T02:04:24;635.40;;;591.80;;
31974;SDS011;18500;43.618;1.474;2022-12-29T02:07:00;479.98;;;448.80;;
31974;SDS011;18500;43.618;1.474;2022-12-29T02:09:29;500.25;;;467.90;;
31974;SDS011;18500;43.618;1.474;2022-12-29T02:11:55;489.00;;;457.13;;
31974;SDS011;18500;43.618;1.474;2022-12-29T02:14:22;449.73;;;421.17;;
31974;SDS011;18500;43.618;1.474;2022-12-29T02:16:58;440.70;;;411.73;;
31974;SDS011;18500;43.618;1.474;2022-12-29T02:28:14;584.50;;;545.78;;
31974;SDS011;18500;43.618;1.474;2022-12-29T02:36:19;544.83;;;507.90;;
31974;SDS011;18500;43.618;1.474;2022-12-29T02:41:28;557.55;;;520.30;;
31974;SDS011;18500;43.618;1.474;2022-12-29T02:44:13;457.83;;;426.88;;
31974;SDS011;18500;43.618;1.474;2022-12-29T02:47:00;410.00;;;382.20;;
31974;SDS011;18500;43.618;1.474;2022-12-29T02:49:54;439.95;;;410.10;;
31974;SDS011;18500;43.618;1.474;2022-12-29T02:53:09;426.80;;;396.70;;
31974;SDS011;18500;43.618;1.474;2022-12-29T02:57:45;768.20;;;712.78;;
31974;SDS011;18500;43.618;1.474;2022-12-29T03:00:12;497.40;;;463.08;;
31974;SDS011;18500;43.618;1.474;2022-12-29T03:08:00;719.65;;;666.63;;
31974;SDS011;18500;43.618;1.474;2022-12-29T03:22:06;609.78;;;568.33;;
31974;SDS011;18500;43.618;1.474;2022-12-29T03:25:10;716.60;;;664.30;;
31974;SDS011;18500;43.618;1.474;2022-12-29T03:27:44;617.15;;;574.25;;
31974;SDS011;18500;43.618;1.474;2022-12-29T03:30:14;611.55;;;568.88;;
31974;SDS011;18500;43.618;1.474;2022-12-29T03:32:42;494.13;;;459.92;;
31974;SDS011;18500;43.618;1.474;2022-12-29T03:35:15;521.17;;;485.63;;
31974;SDS011;18500;43.618;1.474;2022-12-29T03:37:45;515.88;;;480.00;;
31974;SDS011;18500;43.618;1.474;2022-12-29T03:40:17;529.03;;;493.40;;
31974;SDS011;18500;43.618;1.474;2022-12-29T03:42:45;597.28;;;555.33;;
31974;SDS011;18500;43.618;1.474;2022-12-29T03:45:13;528.00;;;492.52;;
31974;SDS011;18500;43.618;1.474;2022-12-29T03:47:39;572.78;;;534.08;;
31974;SDS011;18500;43.618;1.474;2022-12-29T03:50:05;525.28;;;489.45;;
31974;SDS011;18500;43.618;1.474;2022-12-29T03:52:33;550.60;;;513.00;;
31974;SDS011;18500;43.618;1.474;2022-12-29T03:54:59;685.65;;;634.30;;
31974;SDS011;18500;43.618;1.474;2022-12-29T03:57:25;552.65;;;512.75;;
31974;SDS011;18500;43.618;1.474;2022-12-29T03:59:50;535.05;;;497.13;;
31974;SDS011;18500;43.618;1.474;2022-12-29T04:02:16;568.78;;;529.05;;
31974;SDS011;18500;43.618;1.474;2022-12-29T04:04:42;635.22;;;590.60;;
31974;SDS011;18500;43.618;1.474;2022-12-29T04:07:07;676.50;;;625.47;;
31974;SDS011;18500;43.618;1.474;2022-12-29T04:09:33;364.30;;;339.55;;
31974;SDS011;18500;43.618;1.474;2022-12-29T04:11:59;321.73;;;298.90;;
31974;SDS011;18500;43.618;1.474;2022-12-29T04:14:24;296.88;;;276.02;;
31974;SDS011;18500;43.618;1.474;2022-12-29T04:16:50;386.50;;;357.38;;
31974;SDS011;18500;43.618;1.474;2022-12-29T04:19:16;506.25;;;470.63;;
31974;SDS011;18500;43.618;1.474;2022-12-29T04:21:41;525.47;;;488.55;;
31974;SDS011;18500;43.618;1.474;2022-12-29T04:24:07;503.08;;;467.67;;
31974;SDS011;18500;43.618;1.474;2022-12-29T04:26:33;349.92;;;325.05;;
31974;SDS011;18500;43.618;1.474;2022-12-29T04:28:59;519.25;;;482.60;;
31974;SDS011;18500;43.618;1.474;2022-12-29T04:31:24;581.30;;;540.00;;
31974;SDS011;18500;43.618;1.474;2022-12-29T04:33:50;475.15;;;442.23;;
31974;SDS011;18500;43.618;1.474;2022-12-29T04:36:16;575.10;;;535.30;;
31974;SDS011;18500;43.618;1.474;2022-12-29T04:38:41;613.50;;;570.35;;
31974;SDS011;18500;43.618;1.474;2022-12-29T04:41:07;539.75;;;502.73;;
31974;SDS011;18500;43.618;1.474;2022-12-29T04:43:33;557.22;;;517.53;;
31974;SDS011;18500;43.618;1.474;2022-12-29T04:45:58;342.17;;;319.00;;
31974;SDS011;18500;43.618;1.474;2022-12-29T04:48:24;628.83;;;584.42;;
31974;SDS011;18500;43.618;1.474;2022-12-29T04:50:50;596.95;;;555.70;;
31974;SDS011;18500;43.618;1.474;2022-12-29T04:53:16;506.52;;;470.42;;
31974;SDS011;18500;43.618;1.474;2022-12-29T04:55:42;599.33;;;557.88;;
31974;SDS011;18500;43.618;1.474;2022-12-29T04:58:08;581.50;;;540.85;;
31974;SDS011;18500;43.618;1.474;2022-12-29T05:00:34;499.73;;;464.63;;
31974;SDS011;18500;43.618;1.474;2022-12-29T05:02:59;480.27;;;446.95;;
31974;SDS011;18500;43.618;1.474;2022-12-29T05:05:26;516.83;;;480.05;;
31974;SDS011;18500;43.618;1.474;2022-12-29T05:07:51;573.63;;;533.55;;
31974;SDS011;18500;43.618;1.474;2022-12-29T05:10:17;577.88;;;537.78;;
31974;SDS011;18500;43.618;1.474;2022-12-29T05:12:43;544.35;;;506.73;;
31974;SDS011;18500;43.618;1.474;2022-12-29T05:15:09;568.75;;;528.53;;
31974;SDS011;18500;43.618;1.474;2022-12-29T05:17:36;493.88;;;460.65;;
31974;SDS011;18500;43.618;1.474;2022-12-29T05:20:02;492.17;;;457.73;;
31974;SDS011;18500;43.618;1.474;2022-12-29T05:22:30;429.88;;;400.92;;
31974;SDS011;18500;43.618;1.474;2022-12-29T05:24:55;448.23;;;418.27;;
31974;SDS011;18500;43.618;1.474;2022-12-29T05:27:21;576.10;;;537.35;;
31974;SDS011;18500;43.618;1.474;2022-12-29T05:29:47;334.88;;;312.70;;
31974;SDS011;18500;43.618;1.474;2022-12-29T05:32:12;532.60;;;496.63;;
31974;SDS011;18500;43.618;1.474;2022-12-29T05:34:38;472.40;;;440.52;;
31974;SDS011;18500;43.618;1.474;2022-12-29T05:37:04;446.60;;;418.00;;
31974;SDS011;18500;43.618;1.474;2022-12-29T05:39:30;479.08;;;448.35;;
31974;SDS011;18500;43.618;1.474;2022-12-29T05:41:55;480.95;;;449.05;;
31974;SDS011;18500;43.618;1.474;2022-12-29T05:44:21;529.60;;;495.60;;
31974;SDS011;18500;43.618;1.474;2022-12-29T05:46:47;463.65;;;433.08;;
31974;SDS011;18500;43.618;1.474;2022-12-29T05:49:12;533.20;;;499.80;;
31974;SDS011;18500;43.618;1.474;2022-12-29T05:51:38;477.90;;;445.48;;
31974;SDS011;18500;43.618;1.474;2022-12-29T05:54:04;506.58;;;471.45;;
31974;SDS011;18500;43.618;1.474;2022-12-29T05:56:30;467.42;;;437.20;;
31974;SDS011;18500;43.618;1.474;2022-12-29T05:58:56;456.45;;;428.00;;
31974;SDS011;18500;43.618;1.474;2022-12-29T06:01:21;547.72;;;511.15;;
31974;SDS011;18500;43.618;1.474;2022-12-29T06:03:47;515.67;;;479.73;;
31974;SDS011;18500;43.618;1.474;2022-12-29T06:06:13;352.05;;;328.73;;
31974;SDS011;18500;43.618;1.474;2022-12-29T06:08:38;467.10;;;433.75;;
31974;SDS011;18500;43.618;1.474;2022-12-29T06:11:04;321.20;;;300.77;;
31974;SDS011;18500;43.618;1.474;2022-12-29T06:13:30;572.08;;;533.83;;
31974;SDS011;18500;43.618;1.474;2022-12-29T06:15:55;410.17;;;382.30;;
31974;SDS011;18500;43.618;1.474;2022-12-29T06:18:21;391.95;;;366.35;;
31974;SDS011;18500;43.618;1.474;2022-12-29T06:20:47;420.75;;;392.85;;
31974;SDS011;18500;43.618;1.474;2022-12-29T06:23:13;429.88;;;401.45;;
31974;SDS011;18500;43.618;1.474;2022-12-29T06:25:38;406.83;;;381.45;;
31974;SDS011;18500;43.618;1.474;2022-12-29T06:28:04;454.92;;;426.10;;
31974;SDS011;18500;43.618;1.474;2022-12-29T06:30:30;411.85;;;384.52;;
31974;SDS011;18500;43.618;1.474;2022-12-29T06:32:57;394.50;;;368.90;;
31974;SDS011;18500;43.618;1.474;2022-12-29T06:35:24;421.92;;;393.92;;
31974;SDS011;18500;43.618;1.474;2022-12-29T06:37:49;443.65;;;415.60;;
31974;SDS011;18500;43.618;1.474;2022-12-29T06:40:15;403.55;;;377.08;;
31974;SDS011;18500;43.618;1.474;2022-12-29T06:42:41;424.75;;;396.20;;
31974;SDS011;18500;43.618;1.474;2022-12-29T06:45:07;367.08;;;342.40;;
31974;SDS011;18500;43.618;1.474;2022-12-29T06:47:34;393.02;;;366.80;;
31974;SDS011;18500;43.618;1.474;2022-12-29T06:50:00;397.88;;;373.33;;
31974;SDS011;18500;43.618;1.474;2022-12-29T06:52:26;388.95;;;363.95;;
31974;SDS011;18500;43.618;1.474;2022-12-29T06:54:53;362.48;;;339.25;;
31974;SDS011;18500;43.618;1.474;2022-12-29T06:57:19;377.15;;;351.42;;
31974;SDS011;18500;43.618;1.474;2022-12-29T06:59:46;405.90;;;379.15;;
31974;SDS011;18500;43.618;1.474;2022-12-29T07:02:12;355.60;;;331.63;;
31974;SDS011;18500;43.618;1.474;2022-12-29T07:04:43;429.80;;;401.50;;
31974;SDS011;18500;43.618;1.474;2022-12-29T07:07:08;379.48;;;353.90;;
31974;SDS011;18500;43.618;1.474;2022-12-29T07:09:34;380.90;;;355.85;;
31974;SDS011;18500;43.618;1.474;2022-12-29T07:12:00;400.25;;;373.15;;
31974;SDS011;18500;43.618;1.474;2022-12-29T07:14:25;418.48;;;390.83;;
31974;SDS011;18500;43.618;1.474;2022-12-29T07:16:51;378.63;;;353.45;;
31974;SDS011;18500;43.618;1.474;2022-12-29T07:19:17;417.25;;;390.38;;
31974;SDS011;18500;43.618;1.474;2022-12-29T07:21:42;400.98;;;375.25;;
31974;SDS011;18500;43.618;1.474;2022-12-29T07:24:08;408.48;;;381.52;;
31974;SDS011;18500;43.618;1.474;2022-12-29T07:26:34;397.02;;;371.25;;
31974;SDS011;18500;43.618;1.474;2022-12-29T07:29:01;391.50;;;365.35;;
31974;SDS011;18500;43.618;1.474;2022-12-29T07:31:27;397.63;;;371.15;;
31974;SDS011;18500;43.618;1.474;2022-12-29T07:33:53;420.17;;;392.33;;
31974;SDS011;18500;43.618;1.474;2022-12-29T07:36:19;390.23;;;365.70;;
31974;SDS011;18500;43.618;1.474;2022-12-29T07:38:45;404.13;;;377.35;;
31974;SDS011;18500;43.618;1.474;2022-12-29T07:41:10;429.58;;;402.02;;
31974;SDS011;18500;43.618;1.474;2022-12-29T07:43:36;451.17;;;421.05;;
31974;SDS011;18500;43.618;1.474;2022-12-29T07:46:02;442.13;;;413.33;;
31974;SDS011;18500;43.618;1.474;2022-12-29T07:48:27;512.22;;;477.95;;
31974;SDS011;18500;43.618;1.474;2022-12-29T07:50:53;434.13;;;405.88;;
31974;SDS011;18500;43.618;1.474;2022-12-29T07:53:19;426.40;;;398.13;;
31974;SDS011;18500;43.618;1.474;2022-12-29T07:55:44;448.98;;;418.55;;
31974;SDS011;18500;43.618;1.474;2022-12-29T07:58:10;459.40;;;429.02;;
31974;SDS011;18500;43.618;1.474;2022-12-29T08:00:36;430.83;;;402.73;;
31974;SDS011;18500;43.618;1.474;2022-12-29T08:03:03;431.02;;;403.42;;
31974;SDS011;18500;43.618;1.474;2022-12-29T08:05:30;434.45;;;406.98;;
31974;SDS011;18500;43.618;1.474;2022-12-29T08:07:57;433.45;;;406.13;;
31974;SDS011;18500;43.618;1.474;2022-12-29T08:10:23;462.08;;;432.35;;
31974;SDS011;18500;43.618;1.474;2022-12-29T08:12:49;463.23;;;433.15;;
31974;SDS011;18500;43.618;1.474;2022-12-29T08:15:15;525.05;;;491.48;;
31974;SDS011;18500;43.618;1.474;2022-12-29T08:17:41;419.10;;;393.08;;
31974;SDS011;18500;43.618;1.474;2022-12-29T08:20:07;420.90;;;392.60;;
31974;SDS011;18500;43.618;1.474;2022-12-29T08:22:33;403.80;;;376.27;;
31974;SDS011;18500;43.618;1.474;2022-12-29T08:24:58;529.03;;;494.00;;
31974;SDS011;18500;43.618;1.474;2022-12-29T08:27:25;432.38;;;402.85;;
31974;SDS011;18500;43.618;1.474;2022-12-29T08:29:50;430.65;;;402.05;;
31974;SDS011;18500;43.618;1.474;2022-12-29T08:32:16;392.48;;;366.73;;
31974;SDS011;18500;43.618;1.474;2022-12-29T08:34:42;506.63;;;473.42;;
31974;SDS011;18500;43.618;1.474;2022-12-29T08:37:07;419.23;;;390.85;;
31974;SDS011;18500;43.618;1.474;2022-12-29T08:39:33;300.65;;;280.50;;
31974;SDS011;18500;43.618;1.474;2022-12-29T08:41:59;458.88;;;427.63;;
31974;SDS011;18500;43.618;1.474;2022-12-29T08:44:25;461.40;;;431.25;;
31974;SDS011;18500;43.618;1.474;2022-12-29T08:46:50;462.95;;;431.85;;
31974;SDS011;18500;43.618;1.474;2022-12-29T08:49:16;313.20;;;291.17;;
31974;SDS011;18500;43.618;1.474;2022-12-29T08:51:42;531.80;;;496.08;;
31974;SDS011;18500;43.618;1.474;2022-12-29T08:54:07;375.55;;;348.75;;
31974;SDS011;18500;43.618;1.474;2022-12-29T08:56:33;540.38;;;504.58;;
31974;SDS011;18500;43.618;1.474;2022-12-29T08:58:59;374.90;;;349.85;;
31974;SDS011;18500;43.618;1.474;2022-12-29T09:01:24;407.48;;;379.67;;
31974;SDS011;18500;43.618;1.474;2022-12-29T09:03:50;491.27;;;457.33;;
31974;SDS011;18500;43.618;1.474;2022-12-29T09:06:16;353.13;;;329.52;;
31974;SDS011;18500;43.618;1.474;2022-12-29T09:08:43;489.33;;;457.92;;
31974;SDS011;18500;43.618;1.474;2022-12-29T09:11:10;479.80;;;447.95;;
31974;SDS011;18500;43.618;1.474;2022-12-29T09:13:38;458.60;;;428.17;;
31974;SDS011;18500;43.618;1.474;2022-12-29T09:16:04;484.83;;;452.95;;
31974;SDS011;18500;43.618;1.474;2022-12-29T09:18:30;437.30;;;407.75;;
31974;SDS011;18500;43.618;1.474;2022-12-29T09:20:59;486.77;;;454.80;;
31974;SDS011;18500;43.618;1.474;2022-12-29T09:23:26;428.50;;;399.70;;
31974;SDS011;18500;43.618;1.474;2022-12-29T09:25:52;424.00;;;395.40;;
31974;SDS011;18500;43.618;1.474;2022-12-29T09:28:19;307.92;;;287.83;;
31974;SDS011;18500;43.618;1.474;2022-12-29T09:30:45;414.10;;;387.13;;
31974;SDS011;18500;43.618;1.474;2022-12-29T09:33:11;366.70;;;343.02;;
31974;SDS011;18500;43.618;1.474;2022-12-29T09:35:40;528.47;;;493.30;;
31974;SDS011;18500;43.618;1.474;2022-12-29T09:38:07;387.92;;;361.17;;
31974;SDS011;18500;43.618;1.474;2022-12-29T09:40:33;350.13;;;327.77;;
31974;SDS011;18500;43.618;1.474;2022-12-29T09:45:42;331.27;;;309.25;;
31974;SDS011;18500;43.618;1.474;2022-12-29T09:48:18;509.02;;;474.85;;
31974;SDS011;18500;43.618;1.474;2022-12-29T09:50:52;352.50;;;329.05;;
31974;SDS011;18500;43.618;1.474;2022-12-29T09:53:30;323.50;;;302.38;;
31974;SDS011;18500;43.618;1.474;2022-12-29T09:55:57;408.15;;;380.83;;
31974;SDS011;18500;43.618;1.474;2022-12-29T09:58:30;342.10;;;318.73;;
31974;SDS011;18500;43.618;1.474;2022-12-29T10:03:35;337.83;;;314.25;;
31974;SDS011;18500;43.618;1.474;2022-12-29T10:06:13;367.13;;;342.38;;
31974;SDS011;18500;43.618;1.474;2022-12-29T10:09:17;336.08;;;314.17;;
31974;SDS011;18500;43.618;1.474;2022-12-29T10:23:13;719.80;;;668.08;;
31974;SDS011;18500;43.618;1.474;2022-12-29T10:25:44;844.00;;;777.92;;
31974;SDS011;18500;43.618;1.474;2022-12-29T10:28:24;564.38;;;526.38;;
31974;SDS011;18500;43.618;1.474;2022-12-29T10:31:03;654.45;;;607.28;;
31974;SDS011;18500;43.618;1.474;2022-12-29T10:33:35;686.72;;;638.72;;
31974;SDS011;18500;43.618;1.474;2022-12-29T10:36:15;968.15;;;889.35;;
31974;SDS011;18500;43.618;1.474;2022-12-29T10:39:44;597.47;;;553.95;;
31974;SDS011;18500;43.618;1.474;2022-12-29T10:41:57;807.05;;;747.45;;
31974;SDS011;18500;43.618;1.474;2022-12-29T10:44:34;632.22;;;586.35;;
31974;SDS011;18500;43.618;1.474;2022-12-29T10:47:12;705.92;;;651.45;;
31974;SDS011;18500;43.618;1.474;2022-12-29T10:49:41;772.08;;;713.38;;
31974;SDS011;18500;43.618;1.474;2022-12-29T10:52:11;650.35;;;599.45;;
31974;SDS011;18500;43.618;1.474;2022-12-29T10:57:36;691.72;;;636.45;;
31974;SDS011;18500;43.618;1.474;2022-12-29T11:08:01;1016.65;;;926.47;;
31974;SDS011;18500;43.618;1.474;2022-12-29T11:13:25;999.42;;;912.67;;
31974;SDS011;18500;43.618;1.474;2022-12-29T11:15:52;1001.97;;;914.13;;
31974;SDS011;18500;43.618;1.474;2022-12-29T11:18:25;1100.30;;;990.65;;
31974;SDS011;18500;43.618;1.474;2022-12-29T11:20:55;1080.97;;;977.88;;
31974;SDS011;18500;43.618;1.474;2022-12-29T11:28:40;1092.38;;;981.70;;
31974;SDS011;18500;43.618;1.474;2022-12-29T11:31:08;1101.87;;;990.67;;
31974;SDS011;18500;43.618;1.474;2022-12-29T11:33:35;1020.40;;;930.50;;
31974;SDS011;18500;43.618;1.474;2022-12-29T11:38:45;883.78;;;811.67;;
31974;SDS011;18500;43.618;1.474;2022-12-29T11:41:21;980.13;;;898.47;;
31974;SDS011;18500;43.618;1.474;2022-12-29T11:43:53;900.75;;;829.47;;
31974;SDS011;18500;43.618;1.474;2022-12-29T11:46:26;913.40;;;840.15;;
31974;SDS011;18500;43.618;1.474;2022-12-29T11:48:54;796.45;;;737.20;;
31974;SDS011;18500;43.618;1.474;2022-12-29T11:51:24;832.53;;;770.25;;
31974;SDS011;18500;43.618;1.474;2022-12-29T11:53:55;901.67;;;829.45;;
31974;SDS011;18500;43.618;1.474;2022-12-29T11:56:39;826.92;;;764.45;;
31974;SDS011;18500;43.618;1.474;2022-12-29T12:02:18;833.25;;;769.50;;
31974;SDS011;18500;43.618;1.474;2022-12-29T12:05:28;917.42;;;841.55;;
31974;SDS011;18500;43.618;1.474;2022-12-29T12:11:06;945.28;;;865.22;;
31974;SDS011;18500;43.618;1.474;2022-12-29T12:13:59;967.97;;;885.20;;
31974;SDS011;18500;43.618;1.474;2022-12-29T12:16:37;808.35;;;749.10;;
31974;SDS011;18500;43.618;1.474;2022-12-29T12:19:15;795.20;;;735.35;;
31974;SDS011;18500;43.618;1.474;2022-12-29T12:21:53;774.38;;;717.40;;
31974;SDS011;18500;43.618;1.474;2022-12-29T12:27:00;721.00;;;668.70;;
31974;SDS011;18500;43.618;1.474;2022-12-29T12:32:56;636.78;;;593.90;;
31974;SDS011;18500;43.618;1.474;2022-12-29T12:46:42;585.30;;;545.72;;
31974;SDS011;18500;43.618;1.474;2022-12-29T12:49:48;619.75;;;577.13;;
31974;SDS011;18500;43.618;1.474;2022-12-29T12:57:46;494.92;;;461.20;;
31974;SDS011;18500;43.618;1.474;2022-12-29T13:00:17;431.60;;;401.70;;
31974;SDS011;18500;43.618;1.474;2022-12-29T13:02:59;460.67;;;429.13;;
31974;SDS011;18500;43.618;1.474;2022-12-29T13:10:51;424.35;;;396.80;;
31974;SDS011;18500;43.618;1.474;2022-12-29T13:27:24;551.22;;;515.10;;
31974;SDS011;18500;43.618;1.474;2022-12-29T13:30:23;463.15;;;433.45;;
31974;SDS011;18500;43.618;1.474;2022-12-29T13:40:34;644.45;;;600.38;;
31974;SDS011;18500;43.618;1.474;2022-12-29T13:43:04;686.67;;;636.60;;
31974;SDS011;18500;43.618;1.474;2022-12-29T13:45:31;704.22;;;652.22;;
31974;SDS011;18500;43.618;1.474;2022-12-29T13:50:46;730.25;;;675.90;;
31974;SDS011;18500;43.618;1.474;2022-12-29T14:04:16;731.50;;;675.33;;
31974;SDS011;18500;43.618;1.474;2022-12-29T14:06:58;710.65;;;656.25;;
31974;SDS011;18500;43.618;1.474;2022-12-29T14:15:01;759.58;;;700.42;;
31974;SDS011;18500;43.618;1.474;2022-12-29T14:18:02;810.28;;;745.42;;
31974;SDS011;18500;43.618;1.474;2022-12-29T14:20:31;608.38;;;566.90;;
31974;SDS011;18500;43.618;1.474;2022-12-29T14:28:34;611.20;;;568.63;;
31974;SDS011;18500;43.618;1.474;2022-12-29T14:36:35;618.42;;;573.45;;
31974;SDS011;18500;43.618;1.474;2022-12-29T14:40:14;703.38;;;652.72;;
31974;SDS011;18500;43.618;1.474;2022-12-29T14:44:49;928.90;;;851.67;;
31974;SDS011;18500;43.618;1.474;2022-12-29T14:58:07;997.28;;;907.42;;
31974;SDS011;18500;43.618;1.474;2022-12-29T15:00:43;1016.17;;;921.70;;
31974;SDS011;18500;43.618;1.474;2022-12-29T15:05:48;987.78;;;901.42;;
31974;SDS011;18500;43.618;1.474;2022-12-29T15:08:16;951.03;;;871.27;;
31974;SDS011;18500;43.618;1.474;2022-12-29T15:10:52;1010.55;;;921.38;;
31974;SDS011;18500;43.618;1.474;2022-12-29T15:13:31;1032.57;;;939.95;;
31974;SDS011;18500;43.618;1.474;2022-12-29T15:15:59;1044.90;;;948.05;;
31974;SDS011;18500;43.618;1.474;2022-12-29T15:18:32;1046.00;;;951.47;;
31974;SDS011;18500;43.618;1.474;2022-12-29T15:21:05;1055.93;;;957.42;;
31974;SDS011;18500;43.618;1.474;2022-12-29T15:23:34;1039.97;;;944.67;;
31974;SDS011;18500;43.618;1.474;2022-12-29T15:26:05;1030.32;;;936.63;;
31974;SDS011;18500;43.618;1.474;2022-12-29T15:28:36;1032.95;;;940.72;;
31974;SDS011;18500;43.618;1.474;2022-12-29T15:31:11;1041.45;;;946.85;;
31974;SDS011;18500;43.618;1.474;2022-12-29T15:33:43;1021.80;;;931.20;;
31974;SDS011;18500;43.618;1.474;2022-12-29T15:36:13;1018.28;;;926.67;;
31974;SDS011;18500;43.618;1.474;2022-12-29T15:38:44;1031.90;;;935.58;;
31974;SDS011;18500;43.618;1.474;2022-12-29T15:44:20;1022.40;;;929.13;;
31974;SDS011;18500;43.618;1.474;2022-12-29T15:46:51;1003.05;;;914.28;;
31974;SDS011;18500;43.618;1.474;2022-12-29T15:49:17;1012.45;;;919.83;;
31974;SDS011;18500;43.618;1.474;2022-12-29T15:51:43;1038.15;;;944.08;;
31974;SDS011;18500;43.618;1.474;2022-12-29T15:54:14;1033.25;;;938.22;;
31974;SDS011;18500;43.618;1.474;2022-12-29T15:56:45;1018.75;;;926.97;;
31974;SDS011;18500;43.618;1.474;2022-12-29T15:59:24;1022.50;;;929.78;;
31974;SDS011;18500;43.618;1.474;2022-12-29T16:01:56;986.55;;;897.78;;
31974;SDS011;18500;43.618;1.474;2022-12-29T16:04:23;911.72;;;832.92;;
31974;SDS011;18500;43.618;1.474;2022-12-29T16:06:58;910.72;;;832.42;;
31974;SDS011;18500;43.618;1.474;2022-12-29T16:09:32;895.70;;;814.97;;
31974;SDS011;18500;43.618;1.474;2022-12-29T16:12:05;921.55;;;845.58;;
31974;SDS011;18500;43.618;1.474;2022-12-29T16:14:34;946.40;;;867.72;;
31974;SDS011;18500;43.618;1.474;2022-12-29T16:17:12;997.75;;;900.28;;
31974;SDS011;18500;43.618;1.474;2022-12-29T16:19:41;859.13;;;784.92;;
31974;SDS011;18500;43.618;1.474;2022-12-29T16:22:15;914.95;;;833.72;;
31974;SDS011;18500;43.618;1.474;2022-12-29T16:25:02;805.38;;;738.10;;
31974;SDS011;18500;43.618;1.474;2022-12-29T16:27:32;763.20;;;700.00;;
31974;SDS011;18500;43.618;1.474;2022-12-29T16:30:03;713.85;;;659.10;;
31974;SDS011;18500;43.618;1.474;2022-12-29T16:32:51;701.72;;;650.55;;
31974;SDS011;18500;43.618;1.474;2022-12-29T16:35:22;650.15;;;597.78;;
31974;SDS011;18500;43.618;1.474;2022-12-29T16:38:13;662.00;;;610.22;;
31974;SDS011;18500;43.618;1.474;2022-12-29T16:40:55;542.47;;;503.98;;
31974;SDS011;18500;43.618;1.474;2022-12-29T16:43:24;552.40;;;511.52;;
31974;SDS011;18500;43.618;1.474;2022-12-29T16:48:22;445.08;;;415.02;;
31974;SDS011;18500;43.618;1.474;2022-12-29T16:51:16;421.55;;;391.63;;
31974;SDS011;18500;43.618;1.474;2022-12-29T16:53:50;413.52;;;384.63;;
31974;SDS011;18500;43.618;1.474;2022-12-29T16:56:25;474.13;;;442.98;;
31974;SDS011;18500;43.618;1.474;2022-12-29T16:59:39;495.70;;;452.45;;
31974;SDS011;18500;43.618;1.474;2022-12-29T17:01:45;457.17;;;424.03;;
31974;SDS011;18500;43.618;1.474;2022-12-29T17:04:11;539.85;;;496.90;;
31974;SDS011;18500;43.618;1.474;2022-12-29T17:06:38;661.47;;;609.65;;
31974;SDS011;18500;43.618;1.474;2022-12-29T17:09:17;560.03;;;521.45;;
31974;SDS011;18500;43.618;1.474;2022-12-29T17:11:48;571.00;;;528.63;;
31974;SDS011;18500;43.618;1.474;2022-12-29T17:17:02;595.83;;;552.85;;
31974;SDS011;18500;43.618;1.474;2022-12-29T17:22:01;579.88;;;531.85;;
31974;SDS011;18500;43.618;1.474;2022-12-29T17:24:27;583.30;;;540.55;;
31974;SDS011;18500;43.618;1.474;2022-12-29T17:26:57;671.20;;;620.92;;
31974;SDS011;18500;43.618;1.474;2022-12-29T17:29:27;602.75;;;561.53;;
31974;SDS011;18500;43.618;1.474;2022-12-29T17:31:54;604.40;;;558.58;;